createdAt,value
2022-09-24T00:00:41.420Z,19.92
2022-09-24T00:03:31.078Z,20.65
2022-09-24T00:06:20.013Z,19.45
2022-09-24T00:09:11.146Z,18.92
2022-09-24T00:12:00.677Z,21.77
2022-09-24T00:14:48.995Z,18.52
2022-09-24T00:17:37.481Z,19.52
2022-09-24T00:20:26.023Z,19.75
2022-09-24T00:23:14.682Z,20.58
2022-09-24T00:26:22.385Z,19.30
2022-09-24T00:29:14.416Z,18.83
2022-09-24T00:32:04.005Z,23.42
2022-09-24T00:34:54.171Z,17.55
2022-09-24T00:37:42.517Z,17.27
2022-09-24T00:40:31.724Z,19.63
2022-09-24T00:43:26.272Z,18.95
2022-09-24T00:46:19.727Z,17.70
2022-09-24T00:49:14.141Z,24.08
2022-09-24T00:52:03.487Z,23.27
2022-09-24T00:54:53.838Z,24.77
2022-09-24T00:57:44.280Z,19.90
2022-09-24T01:00:35.301Z,24.45
2022-09-24T01:03:25.626Z,21.38
2022-09-24T01:06:14.959Z,22.33
2022-09-24T01:09:03.477Z,19.08
2022-09-24T01:12:00.437Z,20.15
2022-09-24T01:15:02.358Z,20.23
2022-09-24T01:18:00.353Z,24.08
2022-09-24T01:21:10.701Z,25.67
2022-09-24T01:24:40.450Z,23.83
2022-09-24T01:27:45.423Z,23.95
2022-09-24T01:30:38.282Z,20.30
2022-09-24T01:33:31.750Z,21.35
2022-09-24T01:36:22.102Z,21.50
2022-09-24T01:39:11.287Z,22.55
2022-09-24T01:42:00.457Z,24.55
2022-09-24T01:44:50.331Z,23.92
2022-09-24T01:47:41.539Z,21.60
2022-09-24T01:50:34.296Z,23.05
2022-09-24T01:53:26.544Z,25.13
2022-09-24T01:56:22.002Z,25.50
2022-09-24T01:59:16.115Z,25.42
2022-09-24T02:02:09.161Z,22.50
2022-09-24T02:05:04.087Z,26.60
2022-09-24T02:07:59.391Z,24.75
2022-09-24T02:10:52.757Z,23.85
2022-09-24T02:13:47.889Z,28.40
2022-09-24T02:16:40.055Z,27.73
2022-09-24T02:19:31.020Z,25.38
2022-09-24T02:22:22.177Z,25.45
2022-09-24T02:25:15.783Z,31.50
2022-09-24T02:28:04.244Z,27.58
2022-09-24T02:30:57.039Z,33.80
2022-09-24T02:34:06.540Z,30.92
2022-09-24T02:36:59.245Z,31.45
2022-09-24T02:39:50.266Z,32.15
2022-09-24T02:42:39.434Z,30.80
2022-09-24T02:45:27.840Z,35.47
2022-09-24T02:48:16.229Z,33.42
2022-09-24T02:51:05.417Z,32.55
2022-09-24T02:53:54.086Z,34.40
2022-09-24T02:56:44.400Z,38.05
2022-09-24T02:59:32.905Z,33.53
2022-09-24T03:02:21.928Z,35.45
2022-09-24T03:05:11.276Z,32.22
2022-09-24T03:08:00.241Z,31.98
2022-09-24T03:10:48.967Z,29.42
2022-09-24T03:13:39.358Z,36.05
2022-09-24T03:16:28.037Z,32.97
2022-09-24T03:19:16.469Z,32.25
2022-09-24T03:22:04.915Z,30.30
2022-09-24T03:24:53.992Z,33.08
2022-09-24T03:27:42.360Z,30.77
2022-09-24T03:30:49.925Z,29.33
2022-09-24T03:33:41.786Z,31.60
2022-09-24T03:36:30.244Z,32.63
2022-09-24T03:39:18.771Z,29.85
2022-09-24T03:42:07.318Z,29.23
2022-09-24T03:44:55.677Z,31.30
2022-09-24T03:47:45.482Z,29.52
2022-09-24T03:50:36.598Z,28.05
2022-09-24T03:53:24.934Z,33.15
2022-09-24T03:56:13.649Z,32.22
2022-09-24T03:59:02.124Z,32.25
2022-09-24T04:01:50.701Z,33.40
2022-09-24T04:04:40.688Z,29.08
2022-09-24T04:07:29.077Z,34.15
2022-09-24T04:10:17.624Z,31.42
2022-09-24T04:13:06.173Z,31.75
2022-09-24T04:15:55.138Z,29.00
2022-09-24T04:18:43.619Z,34.53
2022-09-24T04:21:33.487Z,27.00
2022-09-24T04:24:22.373Z,26.52
2022-09-24T04:27:10.787Z,35.35
2022-09-24T04:29:59.404Z,31.85
2022-09-24T04:32:47.968Z,31.50
2022-09-24T04:35:37.153Z,34.03
2022-09-24T04:38:26.893Z,31.05
2022-09-24T04:41:16.801Z,29.10
2022-09-24T04:44:05.516Z,32.00
2022-09-24T04:46:55.258Z,31.05
2022-09-24T04:49:45.985Z,25.50
2022-09-24T04:52:34.722Z,26.73
2022-09-24T04:55:25.560Z,27.52
2022-09-24T04:58:14.084Z,27.33
2022-09-24T05:01:04.114Z,28.95
2022-09-24T05:03:53.321Z,26.30
2022-09-24T05:06:41.779Z,31.63
2022-09-24T05:09:31.705Z,27.40
2022-09-24T05:12:21.854Z,26.35
2022-09-24T05:15:12.654Z,29.73
2022-09-24T05:18:01.070Z,32.65
2022-09-24T05:20:49.557Z,26.58
2022-09-24T05:23:37.888Z,25.02
2022-09-24T05:26:44.002Z,26.38
2022-09-24T05:29:33.733Z,27.55
2022-09-24T05:32:22.249Z,23.58
2022-09-24T05:35:11.133Z,25.17
2022-09-24T05:37:59.537Z,23.35
2022-09-24T05:40:50.697Z,27.33
2022-09-24T05:43:39.484Z,23.65
2022-09-24T05:46:29.486Z,22.50
2022-09-24T05:49:18.005Z,23.20
2022-09-24T05:52:07.551Z,24.27
2022-09-24T05:54:56.509Z,20.83
2022-09-24T05:57:44.901Z,22.10
2022-09-24T06:00:33.437Z,20.83
2022-09-24T06:03:23.539Z,20.30
2022-09-24T06:06:12.457Z,17.67
2022-09-24T06:09:01.109Z,19.23
2022-09-24T06:11:53.185Z,18.92
2022-09-24T06:14:42.593Z,18.23
2022-09-24T06:17:32.589Z,16.95
2022-09-24T06:20:22.345Z,18.35
2022-09-24T06:23:10.809Z,28.58
2022-09-24T06:25:59.300Z,18.38
2022-09-24T06:28:47.998Z,18.52
2022-09-24T06:31:36.562Z,18.00
2022-09-24T06:34:25.377Z,17.67
2022-09-24T06:37:15.169Z,20.42
2022-09-24T06:40:03.762Z,15.98
2022-09-24T06:42:53.193Z,20.05
2022-09-24T06:45:43.092Z,17.45
2022-09-24T06:48:32.489Z,15.07
2022-09-24T06:51:20.958Z,14.82
2022-09-24T06:54:11.342Z,13.27
2022-09-24T06:56:59.760Z,18.48
2022-09-24T06:59:48.188Z,13.32
2022-09-24T07:02:36.664Z,11.95
2022-09-24T07:05:25.107Z,15.82
2022-09-24T07:08:13.556Z,16.42
2022-09-24T07:11:03.297Z,13.20
2022-09-24T07:13:53.524Z,11.98
2022-09-24T07:16:41.944Z,14.43
2022-09-24T07:19:30.382Z,10.68
2022-09-24T07:22:19.213Z,13.80
2022-09-24T07:25:09.533Z,18.15
2022-09-24T07:28:02.446Z,19.95
2022-09-24T07:30:58.346Z,21.27
2022-09-24T07:33:46.775Z,22.23
2022-09-24T07:36:35.326Z,19.73
2022-09-24T07:39:24.013Z,21.85
2022-09-24T07:42:12.510Z,26.33
2022-09-24T07:45:02.528Z,22.35
2022-09-24T07:47:58.769Z,23.30
2022-09-24T07:50:47.123Z,23.20
2022-09-24T07:53:35.501Z,29.63
2022-09-24T07:56:24.701Z,30.40
2022-09-24T07:59:13.902Z,28.02
2022-09-24T08:02:03.739Z,25.77
2022-09-24T08:04:52.165Z,22.50
2022-09-24T08:07:40.607Z,24.65
2022-09-24T08:10:29.601Z,20.63
2022-09-24T08:13:18.041Z,16.17
2022-09-24T08:16:07.629Z,19.27
2022-09-24T08:18:57.337Z,21.45
2022-09-24T08:21:45.704Z,16.75
2022-09-24T08:24:34.767Z,17.33
2022-09-24T08:27:23.893Z,17.60
2022-09-24T08:30:13.517Z,18.13
2022-09-24T08:33:02.014Z,14.77
2022-09-24T08:35:52.596Z,15.25
2022-09-24T08:38:41.014Z,13.73
2022-09-24T08:41:51.237Z,18.30
2022-09-24T08:45:05.593Z,12.77
2022-09-24T08:47:57.669Z,12.05
2022-09-24T08:50:57.929Z,9.20
2022-09-24T08:53:50.947Z,7.03
2022-09-24T08:56:44.007Z,6.65
2022-09-24T08:59:37.817Z,7.25
2022-09-24T09:02:42.126Z,9.68
2022-09-24T09:05:53.685Z,6.78
2022-09-24T09:09:06.150Z,5.53
2022-09-24T09:12:00.995Z,6.53
2022-09-24T09:14:56.351Z,6.85
2022-09-24T09:17:48.959Z,3.70
2022-09-24T09:20:41.104Z,5.47
2022-09-24T09:23:38.457Z,3.83
2022-09-24T09:26:28.327Z,5.03
2022-09-24T09:29:17.881Z,3.72
2022-09-24T09:32:14.853Z,3.72
2022-09-24T09:35:12.330Z,2.88
2022-09-24T09:38:08.558Z,4.55
2022-09-24T09:41:04.405Z,3.10
2022-09-24T09:44:00.551Z,4.28
2022-09-24T09:46:56.005Z,4.70
2022-09-24T09:49:47.025Z,2.67
2022-09-24T09:52:40.050Z,3.33
2022-09-24T09:55:31.254Z,3.95
2022-09-24T09:58:23.412Z,3.05
2022-09-24T10:01:17.360Z,3.60
2022-09-24T10:04:06.290Z,4.20
2022-09-24T10:07:05.602Z,3.45
2022-09-24T10:10:03.294Z,7.25
2022-09-24T10:12:54.333Z,4.07
2022-09-24T10:15:51.558Z,4.80
2022-09-24T10:18:47.275Z,3.55
2022-09-24T10:21:38.154Z,4.05
2022-09-24T10:24:28.932Z,4.80
2022-09-24T10:27:24.305Z,6.78
2022-09-24T10:30:33.553Z,5.63
2022-09-24T10:33:22.352Z,6.78
2022-09-24T10:36:17.339Z,6.55
2022-09-24T10:39:13.742Z,7.20
2022-09-24T10:42:03.038Z,4.65
2022-09-24T10:44:52.948Z,3.78
2022-09-24T10:47:50.018Z,5.07
2022-09-24T10:50:44.649Z,4.95
2022-09-24T10:53:49.964Z,4.75
2022-09-24T10:56:45.406Z,5.75
2022-09-24T10:59:55.111Z,5.10
2022-09-24T11:03:08.157Z,3.67
2022-09-24T11:06:03.594Z,3.97
2022-09-24T11:09:07.733Z,1.75
2022-09-24T11:12:05.311Z,2.22
2022-09-24T11:15:11.892Z,6.57
2022-09-24T11:18:15.752Z,5.97
2022-09-24T11:21:14.990Z,2.50
2022-09-24T11:24:20.617Z,4.05
2022-09-24T11:27:33.077Z,2.50
2022-09-24T11:30:25.017Z,2.08
2022-09-24T11:33:26.476Z,1.63
2022-09-24T11:36:29.206Z,2.88
2022-09-24T11:39:34.228Z,2.05
2022-09-24T11:42:25.909Z,4.57
2022-09-24T11:45:43.655Z,4.25
2022-09-24T11:48:50.589Z,4.55
2022-09-24T11:51:52.022Z,2.85
2022-09-24T11:54:46.724Z,5.43
2022-09-24T11:57:40.590Z,3.30
2022-09-24T12:00:37.437Z,3.33
2022-09-24T12:03:36.719Z,2.22
2022-09-24T12:06:31.284Z,2.38
2022-09-24T12:09:25.998Z,2.47
2022-09-24T12:12:20.073Z,3.08
2022-09-24T12:15:18.340Z,2.55
2022-09-24T12:18:13.002Z,2.70
2022-09-24T12:21:07.208Z,3.08
2022-09-24T12:24:02.853Z,2.35
2022-09-24T12:26:56.132Z,2.45
2022-09-24T12:30:10.471Z,3.25
2022-09-24T12:33:03.785Z,2.90
2022-09-24T12:36:04.734Z,2.40
2022-09-24T12:38:56.614Z,2.03
2022-09-24T12:41:48.334Z,3.25
2022-09-24T12:44:44.434Z,3.38
2022-09-24T12:47:50.123Z,2.95
2022-09-24T12:50:40.380Z,2.63
2022-09-24T12:53:35.356Z,2.58
2022-09-24T12:56:27.648Z,2.10
2022-09-24T12:59:26.994Z,4.78
2022-09-24T13:02:18.375Z,1.88
2022-09-24T13:05:19.922Z,1.70
2022-09-24T13:08:25.749Z,2.63
2022-09-24T13:11:29.461Z,2.13
2022-09-24T13:14:22.277Z,2.35
2022-09-24T13:17:15.753Z,2.72
2022-09-24T13:20:08.406Z,2.38
2022-09-24T13:22:59.987Z,4.00
2022-09-24T13:25:56.350Z,3.17
2022-09-24T13:28:55.533Z,2.92
2022-09-24T13:31:49.412Z,6.57
2022-09-24T13:34:37.920Z,3.30
2022-09-24T13:37:33.234Z,2.10
2022-09-24T13:40:26.885Z,3.92
2022-09-24T13:43:25.992Z,4.90
2022-09-24T13:46:17.813Z,3.47
2022-09-24T13:49:12.708Z,2.22
2022-09-24T13:52:13.023Z,3.90
2022-09-24T13:55:07.900Z,2.08
2022-09-24T13:57:58.171Z,5.05
2022-09-24T14:00:46.578Z,4.72
2022-09-24T14:03:36.695Z,2.97
2022-09-24T14:06:38.058Z,4.50
2022-09-24T14:09:29.683Z,4.18
2022-09-24T14:12:21.355Z,2.33
2022-09-24T14:15:16.773Z,4.95
2022-09-24T14:18:08.091Z,3.40
2022-09-24T14:21:06.296Z,3.10
2022-09-24T14:23:58.036Z,3.70
2022-09-24T14:26:50.700Z,2.72
2022-09-24T14:29:48.379Z,3.03
2022-09-24T14:32:40.490Z,4.60
2022-09-24T14:35:32.672Z,3.63
2022-09-24T14:38:24.795Z,2.67
2022-09-24T14:41:19.998Z,1.90
2022-09-24T14:44:16.800Z,3.97
2022-09-24T14:47:05.337Z,2.25
2022-09-24T14:49:55.686Z,2.42
2022-09-24T14:52:44.465Z,2.90
2022-09-24T14:55:40.596Z,3.53
2022-09-24T14:58:37.354Z,3.45
2022-09-24T15:01:31.227Z,7.38
2022-09-24T15:04:27.011Z,4.70
2022-09-24T15:07:24.505Z,3.67
2022-09-24T15:10:22.229Z,4.43
2022-09-24T15:13:15.622Z,3.17
2022-09-24T15:16:06.923Z,5.53
2022-09-24T15:19:14.972Z,2.50
2022-09-24T15:22:03.306Z,3.17
2022-09-24T15:24:56.254Z,3.85
2022-09-24T15:27:52.752Z,4.00
2022-09-24T15:30:41.492Z,3.83
2022-09-24T15:33:29.864Z,6.45
2022-09-24T15:36:21.031Z,4.30
2022-09-24T15:39:11.678Z,3.67
2022-09-24T15:42:01.478Z,4.78
2022-09-24T15:44:51.136Z,4.15
2022-09-24T15:47:39.527Z,7.85
2022-09-24T15:50:28.193Z,4.22
2022-09-24T15:53:21.766Z,5.45
2022-09-24T15:56:10.218Z,5.53
2022-09-24T15:59:00.261Z,3.63
2022-09-24T16:01:50.542Z,5.70
2022-09-24T16:04:38.946Z,5.47
2022-09-24T16:07:27.404Z,4.63
2022-09-24T16:10:16.981Z,4.82
2022-09-24T16:13:05.958Z,8.50
2022-09-24T16:15:55.740Z,4.72
2022-09-24T16:18:44.088Z,5.63
2022-09-24T16:21:32.897Z,5.15
2022-09-24T16:24:21.658Z,5.70
2022-09-24T16:27:10.097Z,5.72
2022-09-24T16:29:59.925Z,5.28
2022-09-24T16:32:49.780Z,5.80
2022-09-24T16:35:38.107Z,6.53
2022-09-24T16:38:26.576Z,6.45
2022-09-24T16:41:15.312Z,10.45
2022-09-24T16:44:04.725Z,4.80
2022-09-24T16:46:53.176Z,10.18
2022-09-24T16:49:43.691Z,6.13
2022-09-24T16:52:32.708Z,8.25
2022-09-24T16:55:21.106Z,5.07
2022-09-24T16:58:09.832Z,6.07
2022-09-24T17:00:58.247Z,7.07
2022-09-24T17:03:51.656Z,6.15
2022-09-24T17:06:44.500Z,8.73
2022-09-24T17:09:50.861Z,8.57
2022-09-24T17:12:39.330Z,8.45
2022-09-24T17:15:27.960Z,10.52
2022-09-24T17:18:16.642Z,6.57
2022-09-24T17:21:07.726Z,9.25
2022-09-24T17:23:57.513Z,7.82
2022-09-24T17:26:46.039Z,8.18
2022-09-24T17:29:34.483Z,9.85
2022-09-24T17:32:26.140Z,15.80
2022-09-24T17:35:14.878Z,8.77
2022-09-24T17:38:03.443Z,8.40
2022-09-24T17:40:57.325Z,13.52
2022-09-24T17:43:46.205Z,8.38
2022-09-24T17:46:36.016Z,9.07
2022-09-24T17:49:24.417Z,14.15
2022-09-24T17:52:13.583Z,8.48
2022-09-24T17:55:02.007Z,9.65
2022-09-24T17:57:51.684Z,13.85
2022-09-24T18:00:40.178Z,10.90
2022-09-24T18:03:28.627Z,9.52
2022-09-24T18:06:18.242Z,11.00
2022-09-24T18:09:07.192Z,9.90
2022-09-24T18:11:56.880Z,10.13
2022-09-24T18:14:46.672Z,9.80
2022-09-24T18:17:35.890Z,9.25
2022-09-24T18:20:25.459Z,8.00
2022-09-24T18:23:13.964Z,10.13
2022-09-24T18:26:10.590Z,8.48
2022-09-24T18:29:00.870Z,10.75
2022-09-24T18:31:51.495Z,8.48
2022-09-24T18:34:40.108Z,9.10
2022-09-24T18:37:28.840Z,10.07
2022-09-24T18:40:17.445Z,8.45
2022-09-24T18:43:05.935Z,11.13
2022-09-24T18:45:54.564Z,12.55
2022-09-24T18:48:45.790Z,11.38
2022-09-24T18:51:36.066Z,10.82
2022-09-24T18:54:24.831Z,10.75
2022-09-24T18:57:13.479Z,14.80
2022-09-24T19:00:02.308Z,9.50
2022-09-24T19:02:50.876Z,9.48
2022-09-24T19:05:40.963Z,10.18
2022-09-24T19:08:32.193Z,10.20
2022-09-24T19:11:21.813Z,9.38
2022-09-24T19:14:12.826Z,11.98
2022-09-24T19:17:05.051Z,9.38
2022-09-24T19:19:53.516Z,10.43
2022-09-24T19:22:58.362Z,15.07
2022-09-24T19:25:46.767Z,10.15
2022-09-24T19:28:36.619Z,11.20
2022-09-24T19:31:27.337Z,16.58
2022-09-24T19:34:16.020Z,12.55
2022-09-24T19:37:04.558Z,13.75
2022-09-24T19:39:54.746Z,12.93
2022-09-24T19:42:44.130Z,10.50
2022-09-24T19:45:32.738Z,10.82
2022-09-24T19:48:21.653Z,9.95
2022-09-24T19:51:13.623Z,12.40
2022-09-24T19:54:03.929Z,10.02
2022-09-24T19:56:54.668Z,11.70
2022-09-24T19:59:43.790Z,11.73
2022-09-24T20:02:32.145Z,12.02
2022-09-24T20:05:20.773Z,16.83
2022-09-24T20:08:11.208Z,12.13
2022-09-24T20:11:05.292Z,11.48
2022-09-24T20:13:57.485Z,13.30
2022-09-24T20:16:46.217Z,11.88
2022-09-24T20:19:34.831Z,15.60
2022-09-24T20:22:23.344Z,20.20
2022-09-24T20:25:13.691Z,21.05
2022-09-24T20:28:01.502Z,29.13
2022-09-24T20:30:51.413Z,21.98
2022-09-24T20:33:41.259Z,19.45
2022-09-24T20:36:30.023Z,20.45
2022-09-24T20:39:19.059Z,24.08
2022-09-24T20:42:07.787Z,20.60
2022-09-24T20:44:56.233Z,22.35
2022-09-24T20:47:49.936Z,21.67
2022-09-24T20:50:38.624Z,18.33
2022-09-24T20:53:26.961Z,18.58
2022-09-24T20:56:15.929Z,13.80
2022-09-24T20:59:04.278Z,18.13
2022-09-24T21:01:53.221Z,14.52
2022-09-24T21:04:43.386Z,15.68
2022-09-24T21:07:32.098Z,16.85
2022-09-24T21:10:20.772Z,17.88
2022-09-24T21:13:09.839Z,16.80
2022-09-24T21:16:01.857Z,18.30
2022-09-24T21:18:52.256Z,18.13
2022-09-24T21:21:42.630Z,18.92
2022-09-24T21:24:31.805Z,17.98
2022-09-24T21:27:20.510Z,19.92
2022-09-24T21:30:09.944Z,21.67
2022-09-24T21:32:58.313Z,23.20
2022-09-24T21:35:46.651Z,21.10
2022-09-24T21:38:37.266Z,19.80
2022-09-24T21:41:28.097Z,20.38
2022-09-24T21:44:17.730Z,20.15
2022-09-24T21:47:06.441Z,18.55
2022-09-24T21:49:56.597Z,21.98
2022-09-24T21:52:45.196Z,16.98
2022-09-24T21:55:35.962Z,18.33
2022-09-24T21:58:24.561Z,22.38
2022-09-24T22:01:16.857Z,21.40
2022-09-24T22:04:07.125Z,24.20
2022-09-24T22:06:56.252Z,20.58
2022-09-24T22:09:45.018Z,23.95
2022-09-24T22:12:35.560Z,24.20
2022-09-24T22:15:23.968Z,21.10
2022-09-24T22:18:12.444Z,21.75
2022-09-24T22:21:05.536Z,21.85
2022-09-24T22:23:54.358Z,22.90
2022-09-24T22:26:42.746Z,24.85
2022-09-24T22:29:32.655Z,26.85
2022-09-24T22:32:21.000Z,26.23
2022-09-24T22:35:29.846Z,30.25
2022-09-24T22:38:18.874Z,31.10
2022-09-24T22:41:10.923Z,32.05
2022-09-24T22:43:59.792Z,33.83
2022-09-24T22:46:49.552Z,32.92
2022-09-24T22:49:38.240Z,38.00
2022-09-24T22:52:26.688Z,34.50
2022-09-24T22:55:15.153Z,40.53
2022-09-24T22:58:03.674Z,39.28
2022-09-24T23:00:52.369Z,38.78
2022-09-24T23:03:42.224Z,40.97
2022-09-24T23:06:32.877Z,39.15
2022-09-24T23:09:21.660Z,38.72
2022-09-24T23:12:10.210Z,39.30
2022-09-24T23:14:59.960Z,40.88
2022-09-24T23:17:48.651Z,41.08
2022-09-24T23:20:39.192Z,38.75
2022-09-24T23:23:27.601Z,39.30
2022-09-24T23:26:18.866Z,41.05
2022-09-24T23:29:08.645Z,38.13
2022-09-24T23:31:57.004Z,39.35
2022-09-24T23:34:46.620Z,38.53
2022-09-24T23:37:36.436Z,32.13
2022-09-24T23:40:24.858Z,36.47
2022-09-24T23:43:13.764Z,35.55
2022-09-24T23:46:03.019Z,40.67
2022-09-24T23:48:51.682Z,31.17
2022-09-24T23:51:39.989Z,35.58
2022-09-24T23:54:29.853Z,31.75
2022-09-24T23:57:18.655Z,33.70
